Time;durP1;ratioP1;P1;durP2;ratioP2;P2;SDS_P1;SDS_P2;PMS_P1;PMS_P2;Temp;Humidity;BMP_temperature;BMP_pressure;BME280_temperature;BME280_humidity;BME280_pressure;Samples;Min_cycle;Max_cycle;Signal;HPM_P1;HPM_P2
2021/09/13 00:02:28;;;;;;;;;7.33;7.00;;;;;;;;5074892;27;45507;-79
2021/09/13 00:04:53;;;;;;;;;6.00;6.00;;;;;;;;5071247;27;45333;-80
2021/09/13 00:07:18;;;;;;;;;10.00;8.00;;;;;;;;5072813;27;45413;-80
2021/09/13 00:09:44;;;;;;;;;6.67;6.67;;;;;;;;5070361;27;45378;-80
2021/09/13 00:12:09;;;;;;;;;8.50;8.50;;;;;;;;5070853;28;45508;-80
2021/09/13 00:14:34;;;;;;;;;9.33;6.67;;;;;;;;5073723;28;45363;-80
2021/09/13 00:16:59;;;;;;;;;7.00;7.00;;;;;;;;5067796;28;47041;-80
2021/09/13 00:19:25;;;;;;;;;7.67;7.67;;;;;;;;5070287;28;45289;-80
2021/09/13 00:21:50;;;;;;;;;10.25;6.25;;;;;;;;5067080;28;45396;-80
2021/09/13 00:24:15;;;;;;;;;6.67;6.67;;;;;;;;5071497;28;45535;-80
2021/09/13 00:26:40;;;;;;;;;5.67;5.00;;;;;;;;5067948;28;46175;-80
2021/09/13 00:29:05;;;;;;;;;7.00;7.00;;;;;;;;5069709;28;45570;-80
2021/09/13 00:31:31;;;;;;;;;6.00;6.00;;;;;;;;5068922;27;45398;-80
2021/09/13 00:33:56;;;;;;;;;7.00;5.75;;;;;;;;5069857;28;45380;-80
2021/09/13 00:36:21;;;;;;;;;10.00;6.00;;;;;;;;5068408;28;46295;-79
2021/09/13 00:38:46;;;;;;;;;5.33;5.00;;;;;;;;5076566;28;45444;-79
2021/09/13 00:41:12;;;;;;;;;6.67;5.33;;;;;;;;5067496;28;45637;-80
2021/09/13 00:43:37;;;;;;;;;8.75;6.00;;;;;;;;5069403;28;46102;-80
2021/09/13 00:46:02;;;;;;;;;6.75;6.00;;;;;;;;5074464;28;46072;-79
2021/09/13 00:48:27;;;;;;;;;8.00;6.50;;;;;;;;5074525;27;45421;-79
2021/09/13 00:50:53;;;;;;;;;6.33;6.00;;;;;;;;5073014;28;45585;-79
2021/09/13 00:53:18;;;;;;;;;8.75;6.00;;;;;;;;5080414;27;45518;-79
2021/09/13 00:55:45;;;;;;;;;9.75;6.00;;;;;;;;5077085;27;45420;-79
2021/09/13 00:58:11;;;;;;;;;8.00;7.00;;;;;;;;5078752;27;45425;-79
2021/09/13 01:00:36;;;;;;;;;9.50;7.75;;;;;;;;5073728;27;45546;-79
2021/09/13 01:03:02;;;;;;;;;14.25;10.00;;;;;;;;5075218;28;45450;-79
2021/09/13 01:05:27;;;;;;;;;6.00;6.00;;;;;;;;5072360;27;46666;-79
2021/09/13 01:07:53;;;;;;;;;8.00;8.00;;;;;;;;5073181;28;45446;-79
2021/09/13 01:10:19;;;;;;;;;8.25;6.75;;;;;;;;5075468;27;45307;-79
2021/09/13 01:12:45;;;;;;;;;8.25;8.00;;;;;;;;5078939;28;45564;-79
2021/09/13 01:15:10;;;;;;;;;7.00;7.00;;;;;;;;5077849;28;45547;-79
2021/09/13 01:17:35;;;;;;;;;10.00;7.00;;;;;;;;5075404;27;45223;-79
2021/09/13 01:20:01;;;;;;;;;8.50;6.50;;;;;;;;5073452;28;45491;-79
2021/09/13 01:22:27;;;;;;;;;10.00;6.50;;;;;;;;5075889;28;45515;-78
2021/09/13 01:24:52;;;;;;;;;10.25;7.25;;;;;;;;5083133;27;46002;-79
2021/09/13 01:27:17;;;;;;;;;8.33;7.00;;;;;;;;5076523;27;45527;-79
2021/09/13 01:29:42;;;;;;;;;8.75;8.25;;;;;;;;5078782;28;45368;-79
2021/09/13 01:32:08;;;;;;;;;8.75;8.00;;;;;;;;5068032;28;45619;-79
2021/09/13 01:34:33;;;;;;;;;7.75;7.75;;;;;;;;5077775;27;45472;-79
2021/09/13 01:36:58;;;;;;;;;6.00;6.00;;;;;;;;5077194;28;45511;-79
2021/09/13 01:39:24;;;;;;;;;8.25;7.50;;;;;;;;5076255;27;45532;-79
2021/09/13 01:41:49;;;;;;;;;7.00;7.00;;;;;;;;5067877;28;45565;-79
2021/09/13 01:44:14;;;;;;;;;9.00;7.00;;;;;;;;5070963;27;45480;-79
2021/09/13 01:46:41;;;;;;;;;7.50;6.50;;;;;;;;5081336;27;45380;-79
2021/09/13 01:49:07;;;;;;;;;8.00;7.00;;;;;;;;5072330;27;45313;-79
2021/09/13 01:51:33;;;;;;;;;10.50;7.00;;;;;;;;5078788;27;45256;-79
2021/09/13 01:53:58;;;;;;;;;8.50;7.00;;;;;;;;5069958;28;45488;-79
2021/09/13 01:56:23;;;;;;;;;8.50;7.75;;;;;;;;5077377;27;45322;-79
2021/09/13 01:58:49;;;;;;;;;8.00;6.00;;;;;;;;5069570;27;45319;-79
2021/09/13 02:01:14;;;;;;;;;11.75;6.25;;;;;;;;5074143;27;45310;-79
2021/09/13 02:03:40;;;;;;;;;10.25;6.00;;;;;;;;5073954;28;45943;-79
2021/09/13 02:06:05;;;;;;;;;7.67;5.33;;;;;;;;5080582;28;45318;-79
2021/09/13 02:08:30;;;;;;;;;7.00;7.00;;;;;;;;5081535;27;44850;-78
2021/09/13 02:10:55;;;;;;;;;8.25;6.25;;;;;;;;5085206;27;46309;-79
2021/09/13 02:13:21;;;;;;;;;6.75;6.50;;;;;;;;5076167;27;47142;-79
2021/09/13 02:15:46;;;;;;;;;6.67;6.67;;;;;;;;5079508;28;45314;-79
2021/09/13 02:18:11;;;;;;;;;7.50;5.25;;;;;;;;5079642;27;45334;-78
2021/09/13 02:20:36;;;;;;;;;6.50;6.50;;;;;;;;5073224;28;45498;-78
2021/09/13 02:23:02;;;;;;;;;10.00;8.67;;;;;;;;5068832;28;47651;-78
2021/09/13 02:25:27;;;;;;;;;10.00;8.25;;;;;;;;5076049;27;45469;-79
2021/09/13 02:27:52;;;;;;;;;6.25;6.25;;;;;;;;5070661;28;45690;-79
2021/09/13 02:30:18;;;;;;;;;11.25;8.25;;;;;;;;5074237;28;45802;-79
2021/09/13 02:32:43;;;;;;;;;7.67;6.00;;;;;;;;5077859;28;46483;-79
2021/09/13 02:35:08;;;;;;;;;7.67;7.67;;;;;;;;5067979;27;45378;-79
2021/09/13 02:37:34;;;;;;;;;8.00;5.50;;;;;;;;5065945;28;45462;-79
2021/09/13 02:40:00;;;;;;;;;6.75;6.75;;;;;;;;5070563;28;45465;-79
2021/09/13 02:42:25;;;;;;;;;6.25;6.25;;;;;;;;5077196;27;45898;-79
2021/09/13 02:44:50;;;;;;;;;8.00;8.00;;;;;;;;5076413;28;45389;-79
2021/09/13 02:47:15;;;;;;;;;8.00;8.00;;;;;;;;5064659;28;45446;-79
2021/09/13 02:49:41;;;;;;;;;7.33;7.00;;;;;;;;5072376;27;45633;-79
2021/09/13 02:52:06;;;;;;;;;8.67;6.67;;;;;;;;5071308;28;46542;-79
2021/09/13 02:54:32;;;;;;;;;10.25;8.00;;;;;;;;5077158;28;45503;-79
2021/09/13 02:56:57;;;;;;;;;11.25;8.00;;;;;;;;5071853;28;45294;-79
2021/09/13 02:59:23;;;;;;;;;10.33;8.00;;;;;;;;5072140;28;45635;-79
2021/09/13 03:01:48;;;;;;;;;7.75;7.25;;;;;;;;5074061;28;45664;-79
2021/09/13 03:04:13;;;;;;;;;7.67;7.33;;;;;;;;5072309;28;45334;-79
2021/09/13 03:06:38;;;;;;;;;8.00;4.67;;;;;;;;5071972;27;45481;-79
2021/09/13 03:09:03;;;;;;;;;8.33;8.33;;;;;;;;5069172;28;45345;-78
2021/09/13 03:11:29;;;;;;;;;8.00;6.00;;;;;;;;5072658;27;45393;-79
2021/09/13 03:13:55;;;;;;;;;6.00;6.00;;;;;;;;5082392;27;45314;-78
2021/09/13 03:16:20;;;;;;;;;8.50;7.25;;;;;;;;5077525;27;45420;-78
2021/09/13 03:18:45;;;;;;;;;9.25;9.25;;;;;;;;5083533;28;45679;-78
2021/09/13 03:21:10;;;;;;;;;7.67;7.33;;;;;;;;5079153;28;48162;-78
2021/09/13 03:23:36;;;;;;;;;9.25;8.00;;;;;;;;5076968;28;45252;-78
2021/09/13 03:26:01;;;;;;;;;9.00;9.00;;;;;;;;5082795;27;45347;-79
2021/09/13 03:28:27;;;;;;;;;10.50;8.00;;;;;;;;5075849;28;45354;-79
2021/09/13 03:30:52;;;;;;;;;11.25;9.50;;;;;;;;5072831;27;45301;-79
2021/09/13 03:33:17;;;;;;;;;8.00;6.00;;;;;;;;5071768;28;45629;-78
2021/09/13 03:35:42;;;;;;;;;7.67;7.67;;;;;;;;5070978;27;45438;-78
2021/09/13 03:38:08;;;;;;;;;10.25;10.25;;;;;;;;5076205;28;45596;-78
2021/09/13 03:40:33;;;;;;;;;13.00;9.67;;;;;;;;5067284;28;48289;-78
2021/09/13 03:42:58;;;;;;;;;9.67;8.00;;;;;;;;5070587;28;45372;-79
2021/09/13 03:45:23;;;;;;;;;10.67;10.00;;;;;;;;5074302;28;45429;-78
2021/09/13 03:47:49;;;;;;;;;9.00;8.75;;;;;;;;5063681;28;45414;-79
2021/09/13 03:50:14;;;;;;;;;10.75;9.50;;;;;;;;5077922;28;47039;-78
2021/09/13 03:52:39;;;;;;;;;11.50;9.00;;;;;;;;5065654;28;45419;-79
2021/09/13 03:55:05;;;;;;;;;9.25;7.75;;;;;;;;5074743;28;45373;-77
2021/09/13 03:57:30;;;;;;;;;11.75;9.75;;;;;;;;5077429;28;45377;-78
2021/09/13 03:59:55;;;;;;;;;8.33;8.33;;;;;;;;5080679;28;45524;-78
2021/09/13 04:02:21;;;;;;;;;11.00;8.00;;;;;;;;5080892;28;45354;-79
2021/09/13 04:04:49;;;;;;;;;13.00;9.75;;;;;;;;5080581;28;45452;-78
2021/09/13 04:07:20;;;;;;;;;16.75;10.00;;;;;;;;5075094;28;45521;-78
2021/09/13 04:09:51;;;;;;;;;13.50;9.50;;;;;;;;5077516;28;46772;-78
2021/09/13 04:12:16;;;;;;;;;12.50;10.00;;;;;;;;5076748;27;45413;-78
2021/09/13 04:14:42;;;;;;;;;10.25;10.25;;;;;;;;5076028;27;45386;-78
2021/09/13 04:17:07;;;;;;;;;9.25;6.50;;;;;;;;5066240;28;45587;-78
2021/09/13 04:19:32;;;;;;;;;11.33;9.33;;;;;;;;5075442;27;45357;-78
2021/09/13 04:21:57;;;;;;;;;10.00;10.00;;;;;;;;5073445;27;45418;-79
2021/09/13 04:24:23;;;;;;;;;10.33;10.00;;;;;;;;5078307;28;45560;-78
2021/09/13 04:26:48;;;;;;;;;10.00;8.75;;;;;;;;5084378;28;45381;-78
2021/09/13 04:29:14;;;;;;;;;9.25;9.25;;;;;;;;5074641;28;45426;-79
2021/09/13 04:31:39;;;;;;;;;11.75;10.25;;;;;;;;5075705;27;45484;-79
2021/09/13 04:34:05;;;;;;;;;13.25;11.00;;;;;;;;5066192;28;45575;-79
2021/09/13 04:36:30;;;;;;;;;13.67;11.00;;;;;;;;5065469;28;45425;-79
2021/09/13 04:38:56;;;;;;;;;10.50;8.75;;;;;;;;5072735;28;45439;-79
2021/09/13 04:41:21;;;;;;;;;12.00;10.50;;;;;;;;5075746;27;44818;-79
2021/09/13 04:43:47;;;;;;;;;11.00;10.00;;;;;;;;5072192;28;45460;-79
2021/09/13 04:46:12;;;;;;;;;9.00;8.75;;;;;;;;5071196;28;45529;-80
2021/09/13 04:48:37;;;;;;;;;9.00;8.75;;;;;;;;5069710;28;45381;-80
2021/09/13 04:51:03;;;;;;;;;11.33;10.33;;;;;;;;5069521;28;45960;-80
2021/09/13 04:53:28;;;;;;;;;10.50;10.50;;;;;;;;5067723;28;45361;-80
2021/09/13 04:55:53;;;;;;;;;11.33;9.00;;;;;;;;5068925;27;45313;-80
2021/09/13 04:58:18;;;;;;;;;14.00;11.00;;;;;;;;5065563;27;45432;-80
2021/09/13 05:00:43;;;;;;;;;14.33;11.00;;;;;;;;5067188;27;45500;-81
2021/09/13 05:03:09;;;;;;;;;14.67;11.00;;;;;;;;5069674;28;45419;-81
2021/09/13 05:05:34;;;;;;;;;11.00;11.00;;;;;;;;5067583;28;45437;-75
2021/09/13 05:07:59;;;;;;;;;20.00;12.33;;;;;;;;5071339;28;45427;-79
2021/09/13 05:10:24;;;;;;;;;10.75;9.50;;;;;;;;5074282;28;45483;-79
2021/09/13 05:12:50;;;;;;;;;9.00;9.00;;;;;;;;5075421;27;45445;-79
2021/09/13 05:15:15;;;;;;;;;9.00;9.00;;;;;;;;5072188;27;45286;-79
2021/09/13 05:17:40;;;;;;;;;14.33;12.00;;;;;;;;5077967;28;45199;-79
2021/09/13 05:20:06;;;;;;;;;14.00;10.50;;;;;;;;5071546;28;45468;-79
2021/09/13 05:22:31;;;;;;;;;13.00;11.00;;;;;;;;5066771;28;45521;-79
2021/09/13 05:24:56;;;;;;;;;12.25;10.25;;;;;;;;5079641;27;45441;-81
2021/09/13 05:27:22;;;;;;;;;11.25;9.25;;;;;;;;5068458;27;47640;-79
2021/09/13 05:29:47;;;;;;;;;12.75;12.75;;;;;;;;5079375;28;45248;-80
2021/09/13 05:32:12;;;;;;;;;14.00;11.00;;;;;;;;5077174;28;45659;-78
2021/09/13 05:34:37;;;;;;;;;10.25;10.25;;;;;;;;5070607;28;45870;-79
2021/09/13 05:37:03;;;;;;;;;11.67;11.67;;;;;;;;5063345;28;45978;-78
2021/09/13 05:39:28;;;;;;;;;14.00;12.75;;;;;;;;5075898;28;45483;-78
2021/09/13 05:41:53;;;;;;;;;10.33;10.33;;;;;;;;5068928;28;45418;-78
2021/09/13 05:44:19;;;;;;;;;10.25;9.75;;;;;;;;5072377;28;45233;-78
2021/09/13 05:46:44;;;;;;;;;13.00;12.00;;;;;;;;5075784;28;48103;-78
2021/09/13 05:49:10;;;;;;;;;13.50;11.00;;;;;;;;5069735;28;45460;-78
2021/09/13 05:51:42;;;;;;;;;12.00;12.00;;;;;;;;5085099;27;45295;-78
2021/09/13 05:54:08;;;;;;;;;12.25;10.25;;;;;;;;5078667;28;45526;-78
2021/09/13 05:56:33;;;;;;;;;13.75;11.25;;;;;;;;5084330;27;45557;-78
2021/09/13 05:58:58;;;;;;;;;11.00;10.75;;;;;;;;5076712;27;45466;-78
2021/09/13 06:01:24;;;;;;;;;14.33;11.67;;;;;;;;5076553;27;45394;-77
2021/09/13 06:03:49;;;;;;;;;15.00;13.00;;;;;;;;5072617;27;45469;-77
2021/09/13 06:06:14;;;;;;;;;14.33;13.67;;;;;;;;5080570;28;46187;-78
2021/09/13 06:08:39;;;;;;;;;14.50;13.75;;;;;;;;5076002;28;45476;-78
2021/09/13 06:11:05;;;;;;;;;16.00;15.33;;;;;;;;5077345;28;45231;-78
2021/09/13 06:13:30;;;;;;;;;13.50;13.50;;;;;;;;5078038;28;45503;-78
2021/09/13 06:15:56;;;;;;;;;17.50;13.00;;;;;;;;5072361;28;46248;-77
2021/09/13 06:18:21;;;;;;;;;15.00;12.50;;;;;;;;5076424;28;45484;-78
2021/09/13 06:20:46;;;;;;;;;15.00;12.50;;;;;;;;5078549;28;45484;-78
2021/09/13 06:23:12;;;;;;;;;16.75;14.00;;;;;;;;5076781;27;45757;-77
2021/09/13 06:25:37;;;;;;;;;13.25;12.00;;;;;;;;5081728;27;45393;-78
2021/09/13 06:28:03;;;;;;;;;14.00;13.50;;;;;;;;5073660;28;45425;-78
2021/09/13 06:30:28;;;;;;;;;14.25;13.50;;;;;;;;5075952;28;45374;-78
2021/09/13 06:32:53;;;;;;;;;20.25;16.50;;;;;;;;5076489;28;45801;-78
2021/09/13 06:35:19;;;;;;;;;16.33;14.33;;;;;;;;5073902;28;46482;-78
2021/09/13 06:37:44;;;;;;;;;22.75;14.50;;;;;;;;5075552;27;45231;-79
2021/09/13 06:40:09;;;;;;;;;16.00;14.75;;;;;;;;5072134;28;45496;-78
2021/09/13 06:42:34;;;;;;;;;13.50;12.25;;;;;;;;5078956;28;45636;-78
2021/09/13 06:45:08;;;;;;;;;15.50;13.25;;;;;;;;5082985;28;46390;-77
2021/09/13 06:47:44;;;;;;;;;18.25;14.75;;;;;;;;5074934;27;45512;-77
2021/09/13 06:50:10;;;;;;;;;18.50;15.75;;;;;;;;5071522;27;45645;-77
2021/09/13 06:52:35;;;;;;;;;24.00;16.50;;;;;;;;5077677;27;45294;-77
2021/09/13 06:55:00;;;;;;;;;14.00;13.33;;;;;;;;5077787;28;45248;-77
2021/09/13 06:57:25;;;;;;;;;14.67;12.67;;;;;;;;5078267;27;45586;-77
2021/09/13 06:59:51;;;;;;;;;16.25;14.50;;;;;;;;5078706;27;45589;-77
2021/09/13 07:02:16;;;;;;;;;18.00;16.00;;;;;;;;5080205;27;45317;-77
2021/09/13 07:04:41;;;;;;;;;15.67;13.33;;;;;;;;5094350;27;46318;-77
2021/09/13 07:07:06;;;;;;;;;17.00;15.00;;;;;;;;5074524;28;45416;-78
2021/09/13 07:09:32;;;;;;;;;16.33;14.00;;;;;;;;5077062;28;45509;-78
2021/09/13 07:11:57;;;;;;;;;22.50;18.25;;;;;;;;5078161;28;45387;-78
2021/09/13 07:14:22;;;;;;;;;16.75;14.50;;;;;;;;5079912;28;45679;-77
2021/09/13 07:16:47;;;;;;;;;17.00;16.25;;;;;;;;5076139;28;45527;-78
2021/09/13 07:19:13;;;;;;;;;17.67;16.00;;;;;;;;5076115;27;45394;-78
2021/09/13 07:21:38;;;;;;;;;25.33;17.33;;;;;;;;5076695;28;45390;-78
2021/09/13 07:24:04;;;;;;;;;14.75;14.75;;;;;;;;5073027;28;46396;-78
2021/09/13 07:26:30;;;;;;;;;17.00;14.50;;;;;;;;5075419;28;45476;-77
2021/09/13 07:28:55;;;;;;;;;17.00;16.00;;;;;;;;5069973;27;45315;-78
2021/09/13 07:31:20;;;;;;;;;21.00;17.67;;;;;;;;5078245;27;45421;-78
2021/09/13 07:33:45;;;;;;;;;19.50;16.50;;;;;;;;5072797;27;45354;-78
2021/09/13 07:36:11;;;;;;;;;14.33;13.33;;;;;;;;5071847;27;45417;-78
2021/09/13 07:38:36;;;;;;;;;22.00;17.75;;;;;;;;5069009;27;45378;-80
2021/09/13 07:41:01;;;;;;;;;20.00;17.25;;;;;;;;5078867;27;45641;-78
2021/09/13 07:43:27;;;;;;;;;21.00;16.25;;;;;;;;5070036;28;46951;-78
2021/09/13 07:45:52;;;;;;;;;17.00;15.50;;;;;;;;5079645;27;45434;-77
2021/09/13 07:48:19;;;;;;;;;16.50;15.00;;;;;;;;5077781;27;45437;-77
2021/09/13 07:50:44;;;;;;;;;15.50;14.75;;;;;;;;5075839;28;45567;-77
2021/09/13 07:53:10;;;;;;;;;13.50;12.25;;;;;;;;5069573;27;45360;-78
2021/09/13 07:55:35;;;;;;;;;17.00;14.50;;;;;;;;5068662;27;45391;-77
2021/09/13 07:58:00;;;;;;;;;17.25;13.00;;;;;;;;5061466;28;45337;-78
2021/09/13 08:00:26;;;;;;;;;16.00;14.67;;;;;;;;5070307;28;45661;-78
2021/09/13 08:02:51;;;;;;;;;15.75;13.50;;;;;;;;5069529;27;45322;-77
2021/09/13 08:05:16;;;;;;;;;15.00;15.00;;;;;;;;5070036;28;45278;-78
2021/09/13 08:07:42;;;;;;;;;16.75;14.25;;;;;;;;5069816;28;45413;-77
2021/09/13 08:10:07;;;;;;;;;15.75;14.25;;;;;;;;5069609;28;45195;-78
2021/09/13 08:12:32;;;;;;;;;14.25;11.00;;;;;;;;5066764;28;45341;-78
2021/09/13 08:14:57;;;;;;;;;13.00;12.50;;;;;;;;5073074;28;45587;-77
2021/09/13 08:17:23;;;;;;;;;17.33;13.67;;;;;;;;5076113;28;45433;-78
2021/09/13 08:19:48;;;;;;;;;15.00;12.00;;;;;;;;5074487;27;45309;-78
2021/09/13 08:22:13;;;;;;;;;15.33;13.00;;;;;;;;5079661;27;46375;-78
2021/09/13 08:24:39;;;;;;;;;10.75;7.75;;;;;;;;5076754;28;45477;-78
2021/09/13 08:27:05;;;;;;;;;11.50;10.25;;;;;;;;5078998;27;45707;-78
2021/09/13 08:29:30;;;;;;;;;14.50;13.25;;;;;;;;5074281;27;45477;-79
2021/09/13 08:31:56;;;;;;;;;14.00;11.75;;;;;;;;5083775;27;46020;-79
2021/09/13 08:34:22;;;;;;;;;15.00;12.50;;;;;;;;5079395;27;45385;-78
2021/09/13 08:36:48;;;;;;;;;13.50;10.00;;;;;;;;5084645;27;45355;-79
2021/09/13 08:39:14;;;;;;;;;14.75;12.25;;;;;;;;5079232;27;45310;-78
2021/09/13 08:41:40;;;;;;;;;12.75;10.75;;;;;;;;5074918;28;45343;-79
2021/09/13 08:44:05;;;;;;;;;13.50;12.75;;;;;;;;5071106;27;45264;-79
2021/09/13 08:46:40;;;;;;;;;8.25;8.25;;;;;;;;5075026;28;45462;-78
2021/09/13 08:49:07;;;;;;;;;10.00;9.50;;;;;;;;5070420;28;45413;-79
2021/09/13 08:51:32;;;;;;;;;9.00;8.50;;;;;;;;5071196;28;46153;-78
2021/09/13 08:54:02;;;;;;;;;10.75;9.25;;;;;;;;5085793;28;44776;-79
2021/09/13 08:56:38;;;;;;;;;12.00;7.75;;;;;;;;5091701;27;45344;-78
2021/09/13 08:59:04;;;;;;;;;10.50;9.75;;;;;;;;5075552;28;45467;-79
2021/09/13 09:01:30;;;;;;;;;10.25;8.00;;;;;;;;5081008;27;45279;-79
2021/09/13 09:03:57;;;;;;;;;14.00;10.50;;;;;;;;5072484;28;45486;-78
2021/09/13 09:06:29;;;;;;;;;10.75;7.75;;;;;;;;5083271;28;45376;-78
2021/09/13 09:09:03;;;;;;;;;7.75;7.25;;;;;;;;5075895;28;45398;-79
2021/09/13 09:11:47;;;;;;;;;9.00;7.00;;;;;;;;5076893;27;45479;-79
2021/09/13 09:14:32;;;;;;;;;8.00;6.25;;;;;;;;5079295;27;45493;-79
2021/09/13 09:16:59;;;;;;;;;9.00;6.50;;;;;;;;5075751;28;45441;-79
2021/09/13 09:19:24;;;;;;;;;7.50;6.75;;;;;;;;5077564;28;45488;-79
2021/09/13 09:21:49;;;;;;;;;7.75;7.00;;;;;;;;5075315;27;46409;-79
2021/09/13 09:24:16;;;;;;;;;6.25;6.25;;;;;;;;5074892;28;45426;-79
2021/09/13 09:26:58;;;;;;;;;7.25;6.50;;;;;;;;5076348;28;45379;-79
2021/09/13 09:29:27;;;;;;;;;7.25;6.00;;;;;;;;5069850;27;45506;-79
2021/09/13 09:31:54;;;;;;;;;8.00;6.25;;;;;;;;5077784;28;45634;-79
2021/09/13 09:34:20;;;;;;;;;13.75;8.50;;;;;;;;5072762;28;45630;-79
2021/09/13 09:36:58;;;;;;;;;6.50;6.50;;;;;;;;5073858;28;45515;-79
2021/09/13 09:39:34;;;;;;;;;7.50;7.50;;;;;;;;5078272;28;45593;-80
2021/09/13 09:41:59;;;;;;;;;10.00;7.00;;;;;;;;5063740;28;47093;-79
2021/09/13 09:44:25;;;;;;;;;7.50;6.50;;;;;;;;5078701;27;45415;-79
2021/09/13 09:46:53;;;;;;;;;5.25;5.00;;;;;;;;5071931;27;45240;-80
2021/09/13 09:49:18;;;;;;;;;8.00;5.25;;;;;;;;5074072;28;45436;-79
2021/09/13 09:51:49;;;;;;;;;6.50;5.50;;;;;;;;5078948;28;47343;-78
2021/09/13 09:54:15;;;;;;;;;6.75;5.50;;;;;;;;5078916;28;45410;-78
2021/09/13 09:56:41;;;;;;;;;5.50;5.50;;;;;;;;5084565;28;45295;-78
2021/09/13 09:59:08;;;;;;;;;6.75;5.50;;;;;;;;5083425;27;45231;-78
2021/09/13 10:01:46;;;;;;;;;6.25;5.00;;;;;;;;5073432;28;46373;-78
2021/09/13 10:04:25;;;;;;;;;9.75;7.75;;;;;;;;5080444;27;45545;-78
2021/09/13 10:06:53;;;;;;;;;8.75;8.50;;;;;;;;5077931;27;45468;-78
2021/09/13 10:09:19;;;;;;;;;10.25;8.75;;;;;;;;5077835;28;45692;-78
2021/09/13 10:11:45;;;;;;;;;7.00;6.50;;;;;;;;5072960;27;46600;-78
2021/09/13 10:14:15;;;;;;;;;7.25;6.75;;;;;;;;5075123;27;45489;-78
2021/09/13 10:16:41;;;;;;;;;6.00;4.25;;;;;;;;5074619;27;45346;-79
2021/09/13 10:19:07;;;;;;;;;8.50;5.25;;;;;;;;5068352;28;45367;-78
2021/09/13 10:21:33;;;;;;;;;7.75;6.75;;;;;;;;5073215;28;45401;-78
2021/09/13 10:23:59;;;;;;;;;5.50;5.00;;;;;;;;5078130;27;45443;-79
2021/09/13 10:26:24;;;;;;;;;5.00;5.00;;;;;;;;5080176;28;45433;-78
2021/09/13 10:29:02;;;;;;;;;5.00;4.50;;;;;;;;5073784;27;45463;-77
2021/09/13 10:31:46;;;;;;;;;7.75;6.00;;;;;;;;5075318;27;47542;-78
2021/09/13 10:34:16;;;;;;;;;6.00;6.00;;;;;;;;5073712;28;45454;-79
2021/09/13 10:37:00;;;;;;;;;4.75;4.75;;;;;;;;5081213;28;45326;-79
2021/09/13 10:39:43;;;;;;;;;7.25;5.25;;;;;;;;5080174;28;45809;-77
2021/09/13 10:42:09;;;;;;;;;6.00;5.25;;;;;;;;5070576;27;46386;-78
2021/09/13 10:44:36;;;;;;;;;5.00;4.00;;;;;;;;5079806;28;45364;-79
2021/09/13 10:47:03;;;;;;;;;4.50;4.50;;;;;;;;5079643;27;45408;-79
2021/09/13 10:49:28;;;;;;;;;5.25;5.25;;;;;;;;5069425;28;45504;-79
2021/09/13 10:52:12;;;;;;;;;7.25;5.75;;;;;;;;5077670;28;45497;-79
2021/09/13 10:54:55;;;;;;;;;6.75;5.25;;;;;;;;5076839;28;45252;-77
2021/09/13 10:57:41;;;;;;;;;4.75;4.75;;;;;;;;5080175;27;45264;-77
2021/09/13 11:00:06;;;;;;;;;6.50;3.25;;;;;;;;5078338;28;46259;-78
2021/09/13 11:02:31;;;;;;;;;5.25;4.00;;;;;;;;5078022;28;45497;-77
2021/09/13 11:05:23;;;;;;;;;6.67;6.67;;;;;;;;5077001;27;46634;-77
2021/09/13 11:08:07;;;;;;;;;9.25;7.75;;;;;;;;5074759;27;45258;-78
2021/09/13 11:10:44;;;;;;;;;9.00;4.00;;;;;;;;5071560;28;45647;-78
2021/09/13 11:13:09;;;;;;;;;7.00;4.75;;;;;;;;5071423;28;46410;-78
2021/09/13 11:15:34;;;;;;;;;5.00;5.00;;;;;;;;5069512;28;45397;-78
2021/09/13 11:18:00;;;;;;;;;8.00;6.75;;;;;;;;5066557;28;45437;-78
2021/09/13 11:20:28;;;;;;;;;5.00;5.00;;;;;;;;5078941;28;45333;-78
2021/09/13 11:22:55;;;;;;;;;4.75;4.25;;;;;;;;5076609;27;46131;-78
2021/09/13 11:25:20;;;;;;;;;5.75;5.00;;;;;;;;5076274;28;45302;-77
2021/09/13 11:27:58;;;;;;;;;5.67;5.67;;;;;;;;5075821;27;45661;-78
2021/09/13 11:30:39;;;;;;;;;8.00;8.00;;;;;;;;5077795;28;45572;-78
2021/09/13 11:33:04;;;;;;;;;9.00;8.00;;;;;;;;5066753;28;45402;-78
2021/09/13 11:35:30;;;;;;;;;6.00;5.75;;;;;;;;5064637;28;45449;-78
2021/09/13 11:37:58;;;;;;;;;5.00;4.50;;;;;;;;5068485;28;45446;-79
2021/09/13 11:40:26;;;;;;;;;5.00;4.75;;;;;;;;5069862;28;45318;-79
2021/09/13 11:42:51;;;;;;;;;4.75;4.75;;;;;;;;5065271;28;45518;-78
2021/09/13 11:45:16;;;;;;;;;5.25;5.25;;;;;;;;5079952;28;45341;-77
2021/09/13 11:47:42;;;;;;;;;4.25;4.25;;;;;;;;5085876;28;44852;-77
2021/09/13 11:50:09;;;;;;;;;5.25;5.00;;;;;;;;5076223;28;45627;-78
2021/09/13 11:52:35;;;;;;;;;4.50;3.00;;;;;;;;5074137;27;46172;-79
2021/09/13 11:55:04;;;;;;;;;5.50;5.50;;;;;;;;5075238;28;45463;-78
2021/09/13 11:57:37;;;;;;;;;8.00;5.75;;;;;;;;5069692;28;45272;-77
2021/09/13 12:00:07;;;;;;;;;7.00;5.25;;;;;;;;5074661;28;45444;-78
2021/09/13 12:02:32;;;;;;;;;6.50;5.00;;;;;;;;5070724;27;45512;-78
2021/09/13 12:04:59;;;;;;;;;6.00;6.00;;;;;;;;5071345;28;45400;-77
2021/09/13 12:07:24;;;;;;;;;7.75;4.50;;;;;;;;5067713;27;45424;-78
2021/09/13 12:09:51;;;;;;;;;4.50;4.50;;;;;;;;5072240;28;45369;-78
2021/09/13 12:12:21;;;;;;;;;5.50;4.50;;;;;;;;5063311;27;45643;-79
2021/09/13 12:14:47;;;;;;;;;4.00;3.25;;;;;;;;5070096;28;45461;-78
2021/09/13 12:17:14;;;;;;;;;4.50;4.50;;;;;;;;5073809;28;45606;-78
2021/09/13 12:19:40;;;;;;;;;3.50;3.25;;;;;;;;5072320;28;45452;-78
2021/09/13 12:22:06;;;;;;;;;6.75;5.75;;;;;;;;5083175;28;45440;-78
2021/09/13 12:24:32;;;;;;;;;6.00;5.25;;;;;;;;5082487;27;45316;-78
2021/09/13 12:27:11;;;;;;;;;6.50;4.25;;;;;;;;5088197;28;45475;-79
2021/09/13 12:29:49;;;;;;;;;5.50;4.00;;;;;;;;5084387;28;45224;-78
2021/09/13 12:32:28;;;;;;;;;4.75;4.75;;;;;;;;5081905;27;45735;-78
2021/09/13 12:34:59;;;;;;;;;7.00;5.25;;;;;;;;5098698;27;45365;-78
2021/09/13 12:37:27;;;;;;;;;4.00;4.00;;;;;;;;5072590;28;45483;-77
2021/09/13 12:40:03;;;;;;;;;5.75;5.00;;;;;;;;5078142;27;45437;-79
2021/09/13 12:42:28;;;;;;;;;6.25;6.00;;;;;;;;5069165;28;47356;-79
2021/09/13 12:44:57;;;;;;;;;6.00;4.75;;;;;;;;5082626;27;45247;-78
2021/09/13 12:47:22;;;;;;;;;4.25;4.25;;;;;;;;5083981;28;45319;-79
2021/09/13 12:49:48;;;;;;;;;4.50;3.75;;;;;;;;5079170;28;45656;-78
2021/09/13 12:52:13;;;;;;;;;5.00;5.00;;;;;;;;5084632;28;45700;-78
2021/09/13 12:54:38;;;;;;;;;5.00;5.00;;;;;;;;5080820;28;45499;-78
2021/09/13 12:57:05;;;;;;;;;7.00;6.50;;;;;;;;5086431;28;45430;-78
2021/09/13 12:59:31;;;;;;;;;6.75;4.75;;;;;;;;5086225;27;45439;-79
2021/09/13 13:01:56;;;;;;;;;9.50;5.00;;;;;;;;5081426;27;46197;-78
2021/09/13 13:04:23;;;;;;;;;5.00;5.00;;;;;;;;5077267;27;45430;-79
2021/09/13 13:07:05;;;;;;;;;5.00;5.00;;;;;;;;5077133;28;45474;-79
2021/09/13 13:09:30;;;;;;;;;6.25;6.00;;;;;;;;5077271;28;45030;-78
2021/09/13 13:11:56;;;;;;;;;5.50;2.75;;;;;;;;5083559;28;45386;-78
2021/09/13 13:14:21;;;;;;;;;4.25;4.00;;;;;;;;5073073;28;45587;-79
2021/09/13 13:16:46;;;;;;;;;5.00;5.00;;;;;;;;5071337;28;45349;-79
2021/09/13 13:19:14;;;;;;;;;4.00;4.00;;;;;;;;5070941;28;45496;-79
2021/09/13 13:21:40;;;;;;;;;3.50;3.25;;;;;;;;5084156;28;47463;-79
2021/09/13 13:24:06;;;;;;;;;3.75;3.75;;;;;;;;5079893;27;45236;-78
2021/09/13 13:26:32;;;;;;;;;3.00;3.00;;;;;;;;5082407;28;45237;-78
2021/09/13 13:28:57;;;;;;;;;3.00;3.00;;;;;;;;5076638;27;45395;-78
2021/09/13 13:31:22;;;;;;;;;4.25;4.00;;;;;;;;5083870;28;46317;-78
2021/09/13 13:33:48;;;;;;;;;4.75;4.75;;;;;;;;5081339;28;45414;-78
2021/09/13 13:36:13;;;;;;;;;4.00;4.00;;;;;;;;5077549;27;45497;-78
2021/09/13 13:38:39;;;;;;;;;6.50;5.75;;;;;;;;5078542;28;45481;-78
2021/09/13 13:41:04;;;;;;;;;8.75;5.00;;;;;;;;5082923;27;45382;-78
2021/09/13 13:43:29;;;;;;;;;5.33;5.33;;;;;;;;5072250;28;45431;-78
2021/09/13 13:45:55;;;;;;;;;4.00;4.00;;;;;;;;5080562;28;45413;-78
2021/09/13 13:48:20;;;;;;;;;3.00;3.00;;;;;;;;5076000;27;45493;-77
2021/09/13 13:50:45;;;;;;;;;5.25;4.75;;;;;;;;5080937;28;46118;-77
2021/09/13 13:53:11;;;;;;;;;8.25;4.75;;;;;;;;5079259;27;45448;-78
2021/09/13 13:55:36;;;;;;;;;4.50;4.00;;;;;;;;5077204;28;45391;-78
2021/09/13 13:58:01;;;;;;;;;3.25;3.25;;;;;;;;5080422;28;45539;-78
2021/09/13 14:00:26;;;;;;;;;5.00;4.75;;;;;;;;5073469;28;45521;-78
2021/09/13 14:02:52;;;;;;;;;2.50;2.00;;;;;;;;5073503;28;45432;-78
2021/09/13 14:05:17;;;;;;;;;5.00;5.00;;;;;;;;5071391;28;45428;-78
2021/09/13 14:07:42;;;;;;;;;11.25;8.75;;;;;;;;5071961;28;45548;-78
2021/09/13 14:10:09;;;;;;;;;5.25;4.00;;;;;;;;5073280;27;46246;-78
2021/09/13 14:12:34;;;;;;;;;7.00;4.75;;;;;;;;5065092;28;45209;-78
2021/09/13 14:14:59;;;;;;;;;3.00;3.00;;;;;;;;5072081;27;45382;-78
2021/09/13 14:17:25;;;;;;;;;5.00;5.00;;;;;;;;5068345;28;45413;-78
2021/09/13 14:19:50;;;;;;;;;6.00;4.25;;;;;;;;5081861;28;45302;-78
2021/09/13 14:22:16;;;;;;;;;5.25;5.00;;;;;;;;5076468;28;45343;-78
2021/09/13 14:24:41;;;;;;;;;6.00;3.25;;;;;;;;5080237;28;45290;-78
2021/09/13 14:27:09;;;;;;;;;4.00;3.50;;;;;;;;5067716;28;45452;-77
2021/09/13 14:29:34;;;;;;;;;6.25;5.75;;;;;;;;5087240;28;45650;-78
2021/09/13 14:31:59;;;;;;;;;3.25;3.00;;;;;;;;5083526;27;45427;-78